Time;durP1;ratioP1;P1;durP2;ratioP2;P2;SDS_P1;SDS_P2;PMS_P1;PMS_P2;Temp;Humidity;BMP_temperature;BMP_pressure;BME280_temperature;BME280_humidity;BME280_pressure;Samples;Min_cycle;Max_cycle;Signal;HPM_P1;HPM_P2
2023/09/23 00:01:42;;;;;;;0.50;0.30;;;;;;;;;;5086116;28;20053;-63
2023/09/23 00:04:11;;;;;;;1.45;0.38;;;;;;;;;;5085914;28;20044;-64
2023/09/23 00:06:40;;;;;;;0.30;0.25;;;;;;;;;;5084311;28;20051;-64
2023/09/23 00:09:10;;;;;;;4.57;0.40;;;;;;;;;;5085337;28;20084;-62
2023/09/23 00:11:40;;;;;;;1.17;0.50;;;;;;;;;;5083377;28;20044;-64
2023/09/23 00:14:11;;;;;;;2.13;0.38;;;;;;;;;;5089015;28;20562;-63
2023/09/23 00:16:39;;;;;;;2.47;0.52;;;;;;;;;;5083822;28;20055;-64
2023/09/23 00:19:09;;;;;;;1.70;0.60;;;;;;;;;;5088234;28;20047;-63
2023/09/23 00:21:38;;;;;;;1.20;0.45;;;;;;;;;;5078977;28;20078;-65
2023/09/23 00:24:08;;;;;;;0.35;0.22;;;;;;;;;;5084214;28;20052;-65
2023/09/23 00:26:36;;;;;;;1.00;0.40;;;;;;;;;;5084381;28;20052;-63
2023/09/23 00:29:06;;;;;;;2.20;0.50;;;;;;;;;;5087748;28;20309;-64
2023/09/23 00:31:35;;;;;;;2.60;0.40;;;;;;;;;;5084136;28;20060;-64
2023/09/23 00:34:05;;;;;;;0.45;0.30;;;;;;;;;;5085322;28;20047;-63
2023/09/23 00:36:34;;;;;;;0.52;0.38;;;;;;;;;;5083556;28;20090;-63
2023/09/23 00:39:09;;;;;;;0.88;0.30;;;;;;;;;;5085333;28;20500;-63
2023/09/23 00:41:37;;;;;;;1.88;0.55;;;;;;;;;;5086344;28;20052;-65
2023/09/23 00:44:06;;;;;;;1.92;0.43;;;;;;;;;;5085630;28;20086;-63
2023/09/23 00:46:36;;;;;;;0.73;0.40;;;;;;;;;;5082086;28;20070;-63
2023/09/23 00:49:08;;;;;;;0.93;0.50;;;;;;;;;;5085483;28;20143;-64
2023/09/23 00:51:37;;;;;;;0.65;0.40;;;;;;;;;;5080138;28;20044;-64
2023/09/23 00:54:10;;;;;;;1.50;0.40;;;;;;;;;;5085080;28;20052;-65
2023/09/23 00:56:39;;;;;;;0.73;0.38;;;;;;;;;;5081712;28;20123;-65
2023/09/23 00:59:07;;;;;;;1.92;0.40;;;;;;;;;;5085699;28;20121;-65
2023/09/23 01:01:39;;;;;;;0.95;0.40;;;;;;;;;;5082542;28;20445;-69
2023/09/23 01:04:09;;;;;;;1.55;0.50;;;;;;;;;;5085877;28;20062;-64
2023/09/23 01:06:38;;;;;;;2.75;0.52;;;;;;;;;;5082677;28;20048;-65
2023/09/23 01:09:10;;;;;;;0.98;0.35;;;;;;;;;;5087148;28;20432;-66
2023/09/23 01:11:40;;;;;;;0.88;0.50;;;;;;;;;;5083006;28;20059;-65
2023/09/23 01:14:09;;;;;;;0.70;0.47;;;;;;;;;;5087147;28;20067;-63
2023/09/23 01:16:39;;;;;;;0.65;0.40;;;;;;;;;;5083588;28;20139;-64
2023/09/23 01:19:09;;;;;;;4.30;0.43;;;;;;;;;;5084392;28;20075;-66
2023/09/23 01:21:38;;;;;;;0.95;0.50;;;;;;;;;;5080292;28;20059;-65
2023/09/23 01:24:08;;;;;;;1.13;0.57;;;;;;;;;;5083240;28;21895;-65
2023/09/23 01:26:37;;;;;;;2.97;0.40;;;;;;;;;;5083126;28;20465;-63
2023/09/23 01:29:07;;;;;;;0.77;0.55;;;;;;;;;;5080533;28;20055;-64
2023/09/23 01:31:36;;;;;;;1.30;1.20;;;;;;;;;;5080562;28;20496;-64
2023/09/23 01:34:04;;;;;;;1.15;1.15;;;;;;;;;;5084612;28;20447;-66
2023/09/23 01:36:33;;;;;;;1.17;1.10;;;;;;;;;;5081297;28;20126;-71
2023/09/23 01:39:04;;;;;;;1.08;1.08;;;;;;;;;;5084919;28;20048;-69
2023/09/23 01:41:34;;;;;;;1.00;1.00;;;;;;;;;;5082820;28;20106;-64
2023/09/23 01:44:04;;;;;;;1.00;1.00;;;;;;;;;;5086537;28;20051;-63
2023/09/23 01:46:33;;;;;;;1.63;1.00;;;;;;;;;;5079912;28;20046;-63
2023/09/23 01:49:03;;;;;;;1.10;1.10;;;;;;;;;;5082713;28;20044;-71
2023/09/23 01:51:31;;;;;;;1.35;1.30;;;;;;;;;;5081895;28;20072;-64
2023/09/23 01:53:59;;;;;;;1.20;1.10;;;;;;;;;;5085115;28;20232;-63
2023/09/23 01:56:28;;;;;;;1.30;1.20;;;;;;;;;;5084190;28;20044;-64
2023/09/23 01:58:57;;;;;;;1.17;1.17;;;;;;;;;;5085421;28;20071;-65
2023/09/23 02:01:26;;;;;;;1.20;1.20;;;;;;;;;;5081866;28;20424;-65
2023/09/23 02:03:55;;;;;;;1.20;1.20;;;;;;;;;;5086848;28;20059;-64
2023/09/23 02:06:27;;;;;;;3.15;1.17;;;;;;;;;;5079122;28;20080;-64
2023/09/23 02:08:55;;;;;;;1.50;1.40;;;;;;;;;;5082626;28;20044;-64
2023/09/23 02:11:24;;;;;;;2.35;1.20;;;;;;;;;;5082039;28;20040;-63
2023/09/23 02:13:53;;;;;;;1.73;1.30;;;;;;;;;;5085622;28;20493;-63
2023/09/23 02:16:22;;;;;;;1.20;1.10;;;;;;;;;;5083483;28;20416;-63
2023/09/23 02:18:51;;;;;;;1.20;1.20;;;;;;;;;;5084203;28;20088;-64
2023/09/23 02:21:19;;;;;;;1.20;1.20;;;;;;;;;;5083399;28;20473;-66
2023/09/23 02:23:47;;;;;;;1.27;1.27;;;;;;;;;;5084301;28;20087;-62
2023/09/23 02:26:16;;;;;;;1.40;1.20;;;;;;;;;;5082014;28;20043;-66
2023/09/23 02:28:47;;;;;;;1.67;1.50;;;;;;;;;;5080326;28;20421;-63
2023/09/23 02:31:16;;;;;;;1.50;1.40;;;;;;;;;;5083319;28;20051;-64
2023/09/23 02:33:46;;;;;;;1.80;1.20;;;;;;;;;;5083513;28;20130;-69
2023/09/23 02:36:14;;;;;;;1.13;1.13;;;;;;;;;;5081466;28;20044;-62
2023/09/23 02:38:43;;;;;;;1.23;1.10;;;;;;;;;;5085889;28;20052;-62
2023/09/23 02:41:12;;;;;;;1.05;1.05;;;;;;;;;;5079877;28;20135;-63
2023/09/23 02:43:40;;;;;;;1.10;1.10;;;;;;;;;;5084342;28;20060;-62
2023/09/23 02:46:09;;;;;;;1.30;1.20;;;;;;;;;;5082703;28;20068;-63
2023/09/23 02:48:37;;;;;;;1.10;1.10;;;;;;;;;;5081604;28;20056;-67
2023/09/23 02:51:07;;;;;;;1.10;1.10;;;;;;;;;;5082380;28;20105;-68
2023/09/23 02:53:35;;;;;;;1.00;1.00;;;;;;;;;;5083720;28;20568;-62
2023/09/23 02:56:05;;;;;;;1.10;1.10;;;;;;;;;;5077981;28;20125;-62
2023/09/23 02:58:34;;;;;;;1.10;1.10;;;;;;;;;;5083644;28;20626;-63
2023/09/23 03:01:04;;;;;;;1.00;1.00;;;;;;;;;;5080585;28;20108;-69
2023/09/23 03:03:37;;;;;;;8.63;1.30;;;;;;;;;;5084363;28;20140;-63
2023/09/23 03:06:10;;;;;;;1.00;1.00;;;;;;;;;;5082326;28;20050;-63
2023/09/23 03:08:39;;;;;;;1.35;1.10;;;;;;;;;;5080117;28;20051;-67
2023/09/23 03:11:12;;;;;;;1.00;1.00;;;;;;;;;;5083110;28;20497;-65
2023/09/23 03:13:41;;;;;;;1.10;1.10;;;;;;;;;;5084815;28;20340;-62
2023/09/23 03:16:14;;;;;;;1.80;1.15;;;;;;;;;;5080885;28;20536;-67
2023/09/23 03:18:54;;;;;;;1.00;1.00;;;;;;;;;;5078602;28;20078;-63
2023/09/23 03:21:25;;;;;;;0.98;0.98;;;;;;;;;;5078526;28;20047;-64
2023/09/23 03:23:53;;;;;;;1.23;1.17;;;;;;;;;;5081259;28;20076;-63
2023/09/23 03:26:22;;;;;;;0.95;0.95;;;;;;;;;;5079039;28;20602;-64
2023/09/23 03:28:50;;;;;;;1.23;1.13;;;;;;;;;;5083325;28;20047;-63
2023/09/23 03:31:19;;;;;;;1.10;1.10;;;;;;;;;;5079369;28;20048;-63
2023/09/23 03:33:47;;;;;;;1.23;1.13;;;;;;;;;;5078737;28;20056;-71
2023/09/23 03:36:16;;;;;;;1.02;1.02;;;;;;;;;;5082260;28;20040;-65
2023/09/23 03:38:47;;;;;;;1.10;1.10;;;;;;;;;;5082634;28;20060;-65
2023/09/23 03:41:15;;;;;;;1.10;1.10;;;;;;;;;;5081395;28;20044;-67
2023/09/23 03:43:44;;;;;;;1.00;1.00;;;;;;;;;;5086139;28;20436;-65
2023/09/23 03:46:14;;;;;;;1.17;1.17;;;;;;;;;;5085332;28;20048;-65
2023/09/23 03:48:43;;;;;;;1.23;1.20;;;;;;;;;;5085037;28;20050;-66
2023/09/23 03:51:14;;;;;;;1.20;1.10;;;;;;;;;;5084236;28;20438;-64
2023/09/23 03:53:44;;;;;;;1.10;1.10;;;;;;;;;;5085186;28;20386;-65
2023/09/23 03:56:14;;;;;;;1.10;1.10;;;;;;;;;;5084284;28;20075;-66
2023/09/23 03:58:43;;;;;;;1.00;1.00;;;;;;;;;;5084252;28;20052;-65
2023/09/23 04:01:14;;;;;;;1.20;1.20;;;;;;;;;;5083675;28;20141;-66
2023/09/23 04:03:42;;;;;;;1.00;1.00;;;;;;;;;;5086424;28;20066;-64
2023/09/23 04:06:11;;;;;;;1.17;1.17;;;;;;;;;;5083579;28;20052;-64
2023/09/23 04:08:40;;;;;;;1.10;1.10;;;;;;;;;;5086530;28;20676;-67
2023/09/23 04:11:09;;;;;;;1.00;1.00;;;;;;;;;;5088586;28;20052;-64
2023/09/23 04:13:39;;;;;;;1.00;1.00;;;;;;;;;;5083559;28;20505;-65
2023/09/23 04:16:07;;;;;;;1.10;1.10;;;;;;;;;;5079374;28;20052;-66
2023/09/23 04:18:36;;;;;;;1.13;1.13;;;;;;;;;;5080713;28;20135;-67
2023/09/23 04:21:05;;;;;;;1.05;1.05;;;;;;;;;;5075920;28;20119;-64
2023/09/23 04:23:34;;;;;;;1.10;1.10;;;;;;;;;;5083762;28;20576;-65
2023/09/23 04:26:03;;;;;;;1.10;1.10;;;;;;;;;;5080518;28;20490;-63
2023/09/23 04:28:32;;;;;;;1.50;1.40;;;;;;;;;;5082362;28;20346;-65
2023/09/23 04:31:02;;;;;;;1.10;1.10;;;;;;;;;;5085078;28;20047;-65
2023/09/23 04:33:31;;;;;;;1.50;1.40;;;;;;;;;;5086983;28;20072;-65
2023/09/23 04:36:00;;;;;;;1.10;1.10;;;;;;;;;;5082841;28;20044;-65
2023/09/23 04:38:28;;;;;;;1.30;1.20;;;;;;;;;;5086152;28;20524;-64
2023/09/23 04:40:56;;;;;;;1.55;1.20;;;;;;;;;;5082663;28;20065;-63
2023/09/23 04:43:25;;;;;;;1.25;1.15;;;;;;;;;;5077795;28;20550;-62
2023/09/23 04:45:54;;;;;;;1.20;1.10;;;;;;;;;;5084948;28;20044;-64
2023/09/23 04:48:24;;;;;;;1.20;1.20;;;;;;;;;;5082917;28;20492;-65
2023/09/23 04:50:56;;;;;;;1.30;1.20;;;;;;;;;;5085099;28;20036;-63
2023/09/23 04:53:26;;;;;;;1.20;1.20;;;;;;;;;;5084969;28;20051;-62
2023/09/23 04:55:55;;;;;;;1.15;1.15;;;;;;;;;;5083861;28;20044;-67
2023/09/23 04:58:24;;;;;;;1.50;1.35;;;;;;;;;;5082683;28;20121;-64
2023/09/23 05:00:54;;;;;;;1.30;1.20;;;;;;;;;;5084045;28;20048;-63
2023/09/23 05:03:23;;;;;;;1.20;1.10;;;;;;;;;;5080572;28;20535;-61
2023/09/23 05:05:52;;;;;;;1.40;1.30;;;;;;;;;;5084667;28;20431;-62
2023/09/23 05:08:21;;;;;;;1.20;1.10;;;;;;;;;;5082507;28;20048;-62
2023/09/23 05:10:49;;;;;;;1.10;1.10;;;;;;;;;;5085123;28;20136;-65
2023/09/23 05:13:18;;;;;;;1.23;1.20;;;;;;;;;;5086390;28;20152;-64
2023/09/23 05:15:46;;;;;;;1.20;1.20;;;;;;;;;;5082055;28;20052;-63
2023/09/23 05:18:15;;;;;;;1.20;1.20;;;;;;;;;;5083389;28;20048;-63
2023/09/23 05:20:47;;;;;;;1.17;1.10;;;;;;;;;;5084047;28;20059;-63
2023/09/23 05:23:16;;;;;;;1.20;1.20;;;;;;;;;;5084675;28;20401;-64
2023/09/23 05:25:45;;;;;;;1.30;1.20;;;;;;;;;;5083320;28;20057;-62
2023/09/23 05:28:13;;;;;;;1.10;1.10;;;;;;;;;;5081903;28;20044;-65
2023/09/23 05:30:42;;;;;;;1.17;1.17;;;;;;;;;;5080806;28;20044;-63
2023/09/23 05:33:12;;;;;;;1.30;1.20;;;;;;;;;;5071211;28;20052;-63
2023/09/23 05:35:41;;;;;;;1.20;1.20;;;;;;;;;;5077123;28;20058;-65
2023/09/23 05:38:12;;;;;;;1.25;1.23;;;;;;;;;;5082513;28;20044;-62
2023/09/23 05:40:40;;;;;;;2.15;1.20;;;;;;;;;;5081400;28;20056;-63
2023/09/23 05:43:10;;;;;;;1.80;1.60;;;;;;;;;;5081853;28;20585;-64
2023/09/23 05:45:39;;;;;;;1.40;1.30;;;;;;;;;;5081611;28;20056;-63
2023/09/23 05:48:07;;;;;;;1.30;1.20;;;;;;;;;;5082982;28;20139;-67
2023/09/23 05:50:36;;;;;;;1.10;1.10;;;;;;;;;;5077346;28;20043;-62
2023/09/23 05:53:05;;;;;;;1.10;1.10;;;;;;;;;;5077182;28;20047;-62
2023/09/23 05:55:35;;;;;;;1.40;1.30;;;;;;;;;;5080007;28;20105;-62
2023/09/23 05:58:03;;;;;;;1.10;1.10;;;;;;;;;;5077714;28;20068;-64
2023/09/23 06:00:32;;;;;;;1.35;1.30;;;;;;;;;;5080493;28;21272;-63
2023/09/23 06:03:00;;;;;;;1.15;1.15;;;;;;;;;;5081183;28;20466;-62
2023/09/23 06:05:29;;;;;;;1.20;1.20;;;;;;;;;;5079737;28;20724;-61
2023/09/23 06:07:57;;;;;;;1.20;1.20;;;;;;;;;;5084089;28;20044;-66
2023/09/23 06:10:26;;;;;;;1.10;1.10;;;;;;;;;;5083055;28;20048;-67
2023/09/23 06:12:56;;;;;;;1.67;1.30;;;;;;;;;;5078030;28;20075;-62
2023/09/23 06:15:26;;;;;;;1.30;1.20;;;;;;;;;;5081053;28;20048;-62
2023/09/23 06:17:55;;;;;;;1.08;1.08;;;;;;;;;;5083661;28;20044;-62
2023/09/23 06:20:23;;;;;;;1.10;1.10;;;;;;;;;;5078182;28;20055;-63
2023/09/23 06:22:52;;;;;;;2.15;1.20;;;;;;;;;;5080629;28;20139;-64
2023/09/23 06:25:21;;;;;;;1.10;1.10;;;;;;;;;;5082474;28;20050;-62
2023/09/23 06:27:49;;;;;;;1.20;1.20;;;;;;;;;;5079801;28;20552;-61
2023/09/23 06:30:19;;;;;;;1.17;1.17;;;;;;;;;;5083996;28;20459;-62
2023/09/23 06:32:48;;;;;;;1.17;1.17;;;;;;;;;;5079261;28;20143;-62
2023/09/23 06:35:16;;;;;;;1.50;1.40;;;;;;;;;;5076632;28;20044;-68
2023/09/23 06:37:45;;;;;;;1.42;1.40;;;;;;;;;;5079813;28;20892;-63
2023/09/23 06:40:14;;;;;;;1.10;1.10;;;;;;;;;;5077778;28;20489;-66
2023/09/23 06:42:43;;;;;;;1.42;1.33;;;;;;;;;;5081420;28;20527;-62
2023/09/23 06:45:12;;;;;;;1.33;1.30;;;;;;;;;;5075417;28;20059;-61
2023/09/23 06:47:42;;;;;;;1.17;1.17;;;;;;;;;;5079575;28;20128;-64
2023/09/23 06:50:10;;;;;;;1.05;1.05;;;;;;;;;;5080373;28;20512;-63
2023/09/23 06:52:39;;;;;;;1.45;1.35;;;;;;;;;;5078430;28;20074;-63
2023/09/23 06:55:08;;;;;;;1.20;1.20;;;;;;;;;;5078445;28;20056;-61
2023/09/23 06:57:36;;;;;;;1.50;1.40;;;;;;;;;;5080273;28;20052;-67
2023/09/23 07:00:07;;;;;;;2.45;1.20;;;;;;;;;;5086034;28;20074;-66
2023/09/23 07:02:36;;;;;;;1.50;1.42;;;;;;;;;;5081263;28;20549;-62
2023/09/23 07:05:06;;;;;;;1.30;1.27;;;;;;;;;;5077615;28;20060;-62
2023/09/23 07:07:35;;;;;;;1.58;1.48;;;;;;;;;;5081200;28;20047;-63
2023/09/23 07:10:04;;;;;;;1.10;1.10;;;;;;;;;;5080295;28;20385;-60
2023/09/23 07:12:32;;;;;;;1.27;1.20;;;;;;;;;;5080967;28;20132;-69
2023/09/23 07:15:01;;;;;;;1.10;1.10;;;;;;;;;;5081376;28;20079;-62
2023/09/23 07:17:29;;;;;;;1.20;1.20;;;;;;;;;;5082405;28;20684;-60
2023/09/23 07:19:58;;;;;;;1.40;1.30;;;;;;;;;;5084596;28;20041;-62
2023/09/23 07:22:28;;;;;;;1.20;1.20;;;;;;;;;;5084109;28;20044;-61
2023/09/23 07:24:56;;;;;;;1.10;1.10;;;;;;;;;;5080868;28;20036;-63
2023/09/23 07:27:25;;;;;;;1.10;1.10;;;;;;;;;;5087305;28;20340;-62
2023/09/23 07:29:53;;;;;;;1.15;1.15;;;;;;;;;;5084644;28;20048;-65
2023/09/23 07:32:22;;;;;;;1.15;1.15;;;;;;;;;;5084860;28;20466;-62
2023/09/23 07:34:50;;;;;;;2.20;1.23;;;;;;;;;;5081120;28;20044;-60
2023/09/23 07:37:18;;;;;;;1.30;1.30;;;;;;;;;;5082206;28;20523;-60
2023/09/23 07:39:48;;;;;;;1.10;1.10;;;;;;;;;;5083206;28;20543;-64
2023/09/23 07:42:17;;;;;;;1.23;1.20;;;;;;;;;;5083164;28;20058;-61
2023/09/23 07:44:45;;;;;;;1.20;1.20;;;;;;;;;;5077445;28;20504;-64
2023/09/23 07:47:14;;;;;;;1.20;1.20;;;;;;;;;;5080999;28;20084;-63
2023/09/23 07:49:42;;;;;;;1.33;1.27;;;;;;;;;;5082827;28;20052;-61
2023/09/23 07:52:11;;;;;;;1.20;1.20;;;;;;;;;;5082034;28;20052;-63
2023/09/23 07:54:39;;;;;;;1.45;1.35;;;;;;;;;;5080758;28;20084;-62
2023/09/23 07:57:09;;;;;;;1.30;1.20;;;;;;;;;;5081683;28;20565;-65
2023/09/23 07:59:37;;;;;;;1.15;1.15;;;;;;;;;;5077708;28;20440;-61
2023/09/23 08:02:07;;;;;;;1.10;1.10;;;;;;;;;;5082726;28;20059;-63
2023/09/23 08:04:35;;;;;;;1.02;1.02;;;;;;;;;;5081401;28;20142;-62
2023/09/23 08:07:04;;;;;;;1.35;1.25;;;;;;;;;;5080108;28;20097;-62
2023/09/23 08:09:32;;;;;;;1.15;1.15;;;;;;;;;;5081667;28;20040;-61
2023/09/23 08:12:00;;;;;;;1.92;1.27;;;;;;;;;;5082391;28;20050;-61
2023/09/23 08:14:30;;;;;;;1.20;1.20;;;;;;;;;;5071340;28;20059;-60
2023/09/23 08:16:59;;;;;;;2.05;1.30;;;;;;;;;;5075522;28;20058;-62
2023/09/23 08:19:27;;;;;;;2.97;1.30;;;;;;;;;;5082938;28;20052;-61
2023/09/23 08:21:56;;;;;;;1.58;1.33;;;;;;;;;;5078511;28;20048;-63
2023/09/23 08:24:24;;;;;;;1.35;1.25;;;;;;;;;;5080874;28;20136;-62
2023/09/23 08:26:53;;;;;;;2.33;1.20;;;;;;;;;;5080981;28;20326;-66
2023/09/23 08:29:23;;;;;;;1.38;1.27;;;;;;;;;;5081831;28;20447;-64
2023/09/23 08:31:53;;;;;;;1.58;1.48;;;;;;;;;;5081953;28;20493;-58
2023/09/23 08:34:24;;;;;;;1.50;1.40;;;;;;;;;;5075796;28;20040;-63
2023/09/23 08:36:53;;;;;;;1.65;1.45;;;;;;;;;;5080999;28;20039;-62
2023/09/23 08:39:21;;;;;;;1.38;1.33;;;;;;;;;;5078463;28;20101;-64
2023/09/23 08:41:53;;;;;;;1.15;1.15;;;;;;;;;;5082473;28;20840;-64
2023/09/23 08:44:22;;;;;;;1.30;1.20;;;;;;;;;;5082270;28;20058;-65
2023/09/23 08:46:51;;;;;;;1.23;1.23;;;;;;;;;;5079165;28;20052;-62
2023/09/23 08:49:22;;;;;;;1.42;1.33;;;;;;;;;;5080056;28;20044;-62
2023/09/23 08:51:52;;;;;;;1.38;1.38;;;;;;;;;;5074397;28;21799;-64
2023/09/23 08:54:23;;;;;;;1.30;1.30;;;;;;;;;;5083006;28;20058;-64
2023/09/23 08:56:54;;;;;;;1.40;1.30;;;;;;;;;;5079467;28;20083;-63
2023/09/23 08:59:23;;;;;;;1.20;1.20;;;;;;;;;;5080593;28;20064;-67
2023/09/23 09:01:51;;;;;;;1.40;1.30;;;;;;;;;;5081839;28;20380;-61
2023/09/23 09:04:21;;;;;;;2.25;1.40;;;;;;;;;;5079551;28;20043;-61
2023/09/23 09:06:50;;;;;;;1.20;1.20;;;;;;;;;;5082666;28;20147;-62
2023/09/23 09:09:19;;;;;;;1.27;1.27;;;;;;;;;;5078148;28;20422;-62
2023/09/23 09:11:48;;;;;;;1.33;1.23;;;;;;;;;;5081450;28;20151;-63
2023/09/23 09:14:16;;;;;;;1.20;1.20;;;;;;;;;;5078829;28;20105;-60
2023/09/23 09:16:45;;;;;;;1.30;1.30;;;;;;;;;;5083188;28;20040;-63
2023/09/23 09:19:14;;;;;;;1.45;1.35;;;;;;;;;;5080995;28;20082;-63
2023/09/23 09:21:43;;;;;;;1.10;1.10;;;;;;;;;;5078061;28;20142;-61
2023/09/23 09:24:12;;;;;;;1.10;1.10;;;;;;;;;;5080309;28;20054;-62
2023/09/23 09:26:40;;;;;;;1.67;1.25;;;;;;;;;;5081284;28;20143;-62
2023/09/23 09:29:09;;;;;;;2.75;1.20;;;;;;;;;;5081670;28;20049;-66
2023/09/23 09:31:38;;;;;;;1.17;1.17;;;;;;;;;;5080790;28;20048;-64
2023/09/23 09:34:08;;;;;;;1.02;1.02;;;;;;;;;;5079206;28;20468;-61
2023/09/23 09:36:38;;;;;;;2.10;1.17;;;;;;;;;;5080948;28;20040;-63
2023/09/23 09:39:10;;;;;;;1.20;1.20;;;;;;;;;;5076832;28;21673;-66
2023/09/23 09:41:42;;;;;;;1.33;1.23;;;;;;;;;;5081093;28;20079;-63
2023/09/23 09:44:11;;;;;;;1.40;1.40;;;;;;;;;;5079362;28;20040;-65
2023/09/23 09:46:40;;;;;;;1.00;1.00;;;;;;;;;;5075037;28;20247;-64
2023/09/23 09:49:09;;;;;;;1.20;1.20;;;;;;;;;;5083067;28;20139;-62
2023/09/23 09:51:39;;;;;;;1.20;1.20;;;;;;;;;;5080345;28;20610;-63
2023/09/23 09:54:11;;;;;;;1.10;1.10;;;;;;;;;;5076646;28;20138;-64
2023/09/23 09:56:40;;;;;;;1.15;1.15;;;;;;;;;;5079560;28;20109;-64
2023/09/23 09:59:09;;;;;;;1.40;1.30;;;;;;;;;;5080817;28;20083;-66
2023/09/23 10:01:39;;;;;;;1.23;1.17;;;;;;;;;;5082507;28;20105;-64
2023/09/23 10:04:11;;;;;;;1.40;1.30;;;;;;;;;;5080189;28;20093;-64
2023/09/23 10:06:42;;;;;;;1.10;1.10;;;;;;;;;;5079493;28;20036;-62
2023/09/23 10:09:18;;;;;;;1.08;1.08;;;;;;;;;;5080262;28;20451;-64
2023/09/23 10:11:55;;;;;;;1.20;1.20;;;;;;;;;;5083258;28;20112;-64
2023/09/23 10:14:24;;;;;;;1.20;1.10;;;;;;;;;;5081802;28;20492;-62
2023/09/23 10:16:53;;;;;;;1.27;1.17;;;;;;;;;;5079776;28;20066;-65
2023/09/23 10:19:32;;;;;;;1.10;1.10;;;;;;;;;;5076682;28;20044;-65
2023/09/23 10:22:13;;;;;;;1.23;1.23;;;;;;;;;;5076404;28;20040;-63
2023/09/23 10:24:43;;;;;;;1.10;1.10;;;;;;;;;;5082614;28;20415;-64
2023/09/23 10:27:12;;;;;;;1.10;1.10;;;;;;;;;;5080177;28;20048;-65
2023/09/23 10:29:45;;;;;;;1.10;1.10;;;;;;;;;;5080344;28;20054;-62
2023/09/23 10:32:14;;;;;;;1.20;1.20;;;;;;;;;;5083344;28;20040;-64
2023/09/23 10:34:50;;;;;;;1.10;1.10;;;;;;;;;;5077874;28;20625;-64
2023/09/23 10:37:25;;;;;;;1.42;1.10;;;;;;;;;;5082225;28;20322;-64
2023/09/23 10:39:55;;;;;;;1.00;1.00;;;;;;;;;;5079904;28;20574;-65
2023/09/23 10:42:23;;;;;;;1.00;1.00;;;;;;;;;;5080346;28;20095;-64
2023/09/23 10:44:52;;;;;;;1.35;1.25;;;;;;;;;;5079852;28;20568;-63
2023/09/23 10:47:20;;;;;;;1.10;1.10;;;;;;;;;;5079590;28;20497;-63
2023/09/23 10:49:49;;;;;;;1.05;1.05;;;;;;;;;;5086083;28;20131;-65
2023/09/23 10:52:18;;;;;;;1.00;1.00;;;;;;;;;;5087223;28;20105;-65
2023/09/23 10:54:49;;;;;;;1.40;1.30;;;;;;;;;;5088684;28;20519;-64
2023/09/23 10:57:18;;;;;;;1.10;1.02;;;;;;;;;;5088123;28;20047;-68
2023/09/23 10:59:47;;;;;;;1.25;1.00;;;;;;;;;;5084726;27;20075;-69
2023/09/23 11:02:15;;;;;;;1.00;1.00;;;;;;;;;;5086144;28;20121;-65
2023/09/23 11:04:48;;;;;;;1.50;1.30;;;;;;;;;;5088251;28;20087;-66
2023/09/23 11:07:17;;;;;;;1.02;1.02;;;;;;;;;;5085737;28;20079;-65
2023/09/23 11:09:46;;;;;;;0.90;0.90;;;;;;;;;;5089359;28;20055;-66
2023/09/23 11:12:15;;;;;;;1.00;1.00;;;;;;;;;;5086549;28;20035;-64
2023/09/23 11:14:46;;;;;;;0.90;0.90;;;;;;;;;;5089249;28;20080;-66
2023/09/23 11:17:21;;;;;;;0.90;0.90;;;;;;;;;;5087666;28;20105;-65
2023/09/23 11:19:49;;;;;;;;;;;;;;;;;;5091058;28;20039;-63
2023/09/23 11:22:23;;;;;;;1.20;1.10;;;;;;;;;;5089170;28;20505;-64
2023/09/23 11:24:52;;;;;;;2.55;1.10;;;;;;;;;;5090897;28;20189;-67
2023/09/23 11:27:20;;;;;;;1.65;1.55;;;;;;;;;;5081807;28;20128;-66
2023/09/23 11:29:50;;;;;;;1.10;1.10;;;;;;;;;;5083434;28;20332;-64
2023/09/23 11:32:21;;;;;;;1.10;1.10;;;;;;;;;;5083147;28;20587;-69
2023/09/23 11:34:50;;;;;;;1.15;1.10;;;;;;;;;;5082620;28;20055;-64
2023/09/23 11:37:20;;;;;;;1.05;1.05;;;;;;;;;;5086729;28;20069;-64
2023/09/23 11:39:48;;;;;;;1.23;1.10;;;;;;;;;;5090108;28;20051;-65
2023/09/23 11:42:17;;;;;;;0.93;0.93;;;;;;;;;;5087658;28;20106;-65
2023/09/23 11:44:45;;;;;;;0.90;0.90;;;;;;;;;;5088446;28;20087;-63
2023/09/23 11:47:17;;;;;;;1.00;1.00;;;;;;;;;;5086974;28;20100;-66
2023/09/23 11:49:46;;;;;;;1.23;1.13;;;;;;;;;;5090271;28;20058;-64
2023/09/23 11:52:14;;;;;;;1.10;1.00;;;;;;;;;;5090443;28;20047;-66
2023/09/23 11:54:44;;;;;;;1.00;1.00;;;;;;;;;;5089166;28;20117;-64
2023/09/23 11:57:12;;;;;;;1.00;1.00;;;;;;;;;;5084698;28;20557;-65
2023/09/23 11:59:42;;;;;;;1.10;1.10;;;;;;;;;;5087365;28;20099;-66
2023/09/23 12:02:10;;;;;;;1.00;1.00;;;;;;;;;;5086183;28;20048;-61
2023/09/23 12:04:41;;;;;;;1.67;1.00;;;;;;;;;;5080511;28;20044;-65
2023/09/23 12:07:11;;;;;;;1.00;1.00;;;;;;;;;;5086769;28;20040;-64
2023/09/23 12:09:39;;;;;;;1.08;1.08;;;;;;;;;;5087932;28;20048;-63
2023/09/23 12:12:11;;;;;;;2.55;1.25;;;;;;;;;;5086277;28;20044;-68
2023/09/23 12:14:42;;;;;;;1.17;1.08;;;;;;;;;;5089295;28;20046;-64
2023/09/23 12:17:14;;;;;;;0.98;0.98;;;;;;;;;;5085883;28;20109;-66
2023/09/23 12:19:44;;;;;;;1.10;1.10;;;;;;;;;;5088518;28;20048;-65
2023/09/23 12:22:15;;;;;;;1.20;1.10;;;;;;;;;;5084540;28;20043;-69
2023/09/23 12:24:44;;;;;;;1.20;1.10;;;;;;;;;;5085166;28;20059;-62
2023/09/23 12:27:13;;;;;;;1.08;1.00;;;;;;;;;;5082591;28;20044;-64
2023/09/23 12:29:41;;;;;;;1.00;1.00;;;;;;;;;;5083898;28;20044;-63
2023/09/23 12:32:10;;;;;;;1.08;1.08;;;;;;;;;;5089647;28;20086;-62
2023/09/23 12:34:39;;;;;;;2.17;1.20;;;;;;;;;;5087142;28;20047;-64
2023/09/23 12:37:09;;;;;;;1.00;1.00;;;;;;;;;;5084956;28;20047;-62
2023/09/23 12:39:37;;;;;;;1.05;1.05;;;;;;;;;;5085969;28;20110;-62
2023/09/23 12:42:06;;;;;;;1.60;1.10;;;;;;;;;;5085718;28;20064;-61
2023/09/23 12:44:34;;;;;;;1.00;1.00;;;;;;;;;;5086070;28;20056;-62
2023/09/23 12:47:03;;;;;;;1.27;1.17;;;;;;;;;;5087298;28;20529;-62
2023/09/23 12:49:32;;;;;;;1.10;1.10;;;;;;;;;;5087912;28;20081;-61
2023/09/23 12:52:00;;;;;;;1.00;1.00;;;;;;;;;;5085568;28;20141;-63
2023/09/23 12:54:30;;;;;;;1.00;1.00;;;;;;;;;;5083953;28;20036;-60
2023/09/23 12:56:59;;;;;;;1.50;1.40;;;;;;;;;;5082557;28;20056;-63
2023/09/23 12:59:28;;;;;;;1.25;1.23;;;;;;;;;;5081115;28;20055;-68
2023/09/23 13:01:56;;;;;;;2.58;1.67;;;;;;;;;;5083520;28;20420;-69
2023/09/23 13:04:25;;;;;;;3.15;1.30;;;;;;;;;;5083711;28;20427;-65
2023/09/23 13:06:53;;;;;;;0.90;0.90;;;;;;;;;;5081294;28;20077;-63
2023/09/23 13:09:22;;;;;;;1.10;1.00;;;;;;;;;;5080955;28;20454;-64
2023/09/23 13:11:52;;;;;;;1.00;1.00;;;;;;;;;;5083282;28;20093;-63
2023/09/23 13:14:22;;;;;;;0.95;0.95;;;;;;;;;;5085444;28;20036;-62
2023/09/23 13:16:50;;;;;;;2.65;1.10;;;;;;;;;;5084033;28;20058;-64
2023/09/23 13:19:19;;;;;;;1.10;1.00;;;;;;;;;;5085628;28;20503;-63
2023/09/23 13:21:48;;;;;;;1.10;1.00;;;;;;;;;;5082377;28;20048;-62
2023/09/23 13:24:16;;;;;;;1.10;1.10;;;;;;;;;;5085088;28;20064;-60
2023/09/23 13:26:45;;;;;;;1.10;1.10;;;;;;;;;;5086098;28;20048;-64
2023/09/23 13:29:16;;;;;;;1.00;1.00;;;;;;;;;;5088220;28;20047;-62
2023/09/23 13:31:45;;;;;;;1.05;1.05;;;;;;;;;;5081897;28;20040;-64
2023/09/23 13:34:14;;;;;;;0.90;0.90;;;;;;;;;;5082506;28;20128;-63
2023/09/23 13:36:42;;;;;;;1.02;1.02;;;;;;;;;;5080763;28;20105;-62
2023/09/23 13:39:12;;;;;;;1.08;1.08;;;;;;;;;;5083541;28;20064;-61
2023/09/23 13:41:40;;;;;;;1.00;1.00;;;;;;;;;;5083672;28;21059;-68
2023/09/23 13:44:09;;;;;;;1.00;1.00;;;;;;;;;;5080333;28;20046;-63
2023/09/23 13:46:39;;;;;;;1.10;1.10;;;;;;;;;;5079974;28;20056;-63
2023/09/23 13:49:08;;;;;;;1.00;1.00;;;;;;;;;;5083395;28;20059;-60
2023/09/23 13:51:36;;;;;;;1.05;1.05;;;;;;;;;;5079044;28;20043;-61
2023/09/23 13:54:05;;;;;;;1.02;1.02;;;;;;;;;;5082075;28;20075;-63
2023/09/23 13:56:33;;;;;;;1.10;1.10;;;;;;;;;;5083315;28;20143;-63
2023/09/23 13:59:02;;;;;;;1.00;1.00;;;;;;;;;;5080864;28;20048;-64
2023/09/23 14:01:30;;;;;;;1.80;1.63;;;;;;;;;;5084491;28;20040;-63
2023/09/23 14:04:00;;;;;;;1.20;1.20;;;;;;;;;;5082680;28;20472;-62
2023/09/23 14:06:28;;;;;;;1.10;1.10;;;;;;;;;;5081875;28;20067;-64
2023/09/23 14:08:57;;;;;;;1.00;1.00;;;;;;;;;;5079981;28;20052;-64
2023/09/23 14:11:25;;;;;;;1.42;1.20;;;;;;;;;;5080604;28;20044;-63
2023/09/23 14:13:54;;;;;;;1.10;1.10;;;;;;;;;;5084144;28;20568;-62
2023/09/23 14:16:22;;;;;;;1.77;1.20;;;;;;;;;;5085306;28;20036;-67
2023/09/23 14:18:51;;;;;;;1.20;1.20;;;;;;;;;;5085838;28;20054;-62
2023/09/23 14:21:21;;;;;;;1.10;1.10;;;;;;;;;;5081591;28;20350;-65
2023/09/23 14:23:49;;;;;;;1.10;1.10;;;;;;;;;;5084428;28;20071;-63
2023/09/23 14:26:18;;;;;;;1.27;1.20;;;;;;;;;;5080059;28;20067;-64
2023/09/23 14:28:46;;;;;;;1.20;1.20;;;;;;;;;;5083191;28;20048;-62
2023/09/23 14:31:15;;;;;;;1.38;1.25;;;;;;;;;;5084223;28;20052;-63
2023/09/23 14:33:43;;;;;;;1.10;1.10;;;;;;;;;;5085120;28;20543;-62
2023/09/23 14:36:12;;;;;;;1.20;1.20;;;;;;;;;;5076581;28;20121;-69
2023/09/23 14:38:41;;;;;;;1.42;1.20;;;;;;;;;;5074305;28;20443;-65
2023/09/23 14:41:10;;;;;;;1.13;1.10;;;;;;;;;;5082514;28;20405;-62
2023/09/23 14:43:39;;;;;;;1.48;1.35;;;;;;;;;;5083054;28;20493;-64
2023/09/23 14:46:08;;;;;;;1.40;1.20;;;;;;;;;;5079146;28;20518;-63
2023/09/23 14:48:37;;;;;;;3.08;1.20;;;;;;;;;;5074018;28;20048;-63
2023/09/23 14:51:05;;;;;;;1.10;1.10;;;;;;;;;;5078353;28;20139;-63
2023/09/23 14:53:33;;;;;;;1.50;1.30;;;;;;;;;;5078262;28;20162;-63
2023/09/23 14:56:03;;;;;;;1.20;1.20;;;;;;;;;;5079499;28;20056;-63